Time;durP1;ratioP1;P1;durP2;ratioP2;P2;SDS_P1;SDS_P2;PMS_P1;PMS_P2;Temp;Humidity;BMP_temperature;BMP_pressure;BME280_temperature;BME280_humidity;BME280_pressure;Samples;Min_cycle;Max_cycle;Signal;HPM_P1;HPM_P2
2022/06/08 00:00:46;;;;;;;9.20;5.35;;;11.60;99.90;;;;;;7392631;19;20014;-63
2022/06/08 00:03:23;;;;;;;9.70;5.60;;;11.70;99.90;;;;;;7390779;19;20042;-63
2022/06/08 00:05:52;;;;;;;8.52;5.07;;;11.70;99.90;;;;;;7392956;19;20024;-63
2022/06/08 00:08:21;;;;;;;6.80;5.15;;;11.60;99.90;;;;;;7399417;19;20501;-63
2022/06/08 00:10:50;;;;;;;7.13;4.88;;;11.60;99.90;;;;;;7398886;19;20014;-63
2022/06/08 00:13:19;;;;;;;9.18;4.95;;;11.20;99.90;;;;;;7396650;19;20078;-64
2022/06/08 00:15:48;;;;;;;14.82;5.28;;;11.50;99.90;;;;;;7397887;19;20022;-63
2022/06/08 00:18:20;;;;;;;10.10;5.72;;;11.50;99.90;;;;;;7401587;19;20497;-63
2022/06/08 00:20:48;;;;;;;9.63;5.57;;;11.50;99.90;;;;;;7398343;19;20382;-63
2022/06/08 00:23:17;;;;;;;9.55;5.40;;;11.80;99.90;;;;;;7399424;19;20061;-63
2022/06/08 00:25:47;;;;;;;7.85;5.15;;;11.40;99.90;;;;;;7399602;19;20018;-63
2022/06/08 00:28:16;;;;;;;9.63;5.60;;;;;;;;;;7398037;19;20021;-63
2022/06/08 00:30:46;;;;;;;8.70;5.53;;;11.40;99.90;;;;;;7399381;19;20077;-63
2022/06/08 00:33:15;;;;;;;7.35;4.90;;;11.40;99.90;;;;;;7396166;19;20738;-63
2022/06/08 00:35:46;;;;;;;8.95;4.82;;;11.30;99.90;;;;;;7399029;19;20021;-63
2022/06/08 00:38:15;;;;;;;10.73;5.10;;;11.40;99.90;;;;;;7397757;19;20355;-63
2022/06/08 00:40:56;;;;;;;6.43;4.95;;;11.30;99.90;;;;;;7398880;19;20014;-63
2022/06/08 00:43:26;;;;;;;6.95;5.18;;;11.30;99.90;;;;;;7399386;19;20459;-63
2022/06/08 00:45:56;;;;;;;8.73;4.82;;;11.30;99.90;;;;;;7398588;19;20484;-63
2022/06/08 00:48:34;;;;;;;8.38;4.82;;;11.30;99.90;;;;;;7398404;19;20014;-63
2022/06/08 00:51:06;;;;;;;9.00;5.00;;;11.30;99.90;;;;;;7397778;19;20014;-63
2022/06/08 00:53:39;;;;;;;7.22;4.75;;;11.30;99.90;;;;;;7397520;19;20078;-63
2022/06/08 00:56:17;;;;;;;8.63;5.05;;;11.30;99.90;;;;;;7395418;19;20035;-63
2022/06/08 00:58:47;;;;;;;9.45;5.50;;;11.50;99.90;;;;;;7401091;19;20020;-63
2022/06/08 01:01:16;;;;;;;8.85;5.40;;;11.50;99.90;;;;;;7399874;19;20078;-62
2022/06/08 01:03:45;;;;;;;8.88;4.72;;;10.90;99.90;;;;;;7398539;19;20078;-62
2022/06/08 01:06:24;;;;;;;14.13;5.43;;;10.80;99.90;;;;;;7398823;19;20466;-62
2022/06/08 01:08:56;;;;;;;7.97;5.07;;;11.10;99.90;;;;;;7396708;19;20095;-62
2022/06/08 01:11:31;;;;;;;7.32;4.93;;;11.10;99.90;;;;;;7396477;19;20018;-63
2022/06/08 01:14:03;;;;;;;8.70;5.60;;;11.20;99.90;;;;;;7395669;19;20027;-62
2022/06/08 01:16:33;;;;;;;5.72;4.50;;;11.10;99.90;;;;;;7399180;19;20356;-62
2022/06/08 01:19:04;;;;;;;7.00;5.00;;;11.10;99.90;;;;;;7395589;19;20010;-62
2022/06/08 01:21:55;;;;;;;9.00;4.78;;;11.10;99.90;;;;;;7396325;19;20343;-62
2022/06/08 01:24:26;;;;;;;8.55;5.03;;;11.00;99.90;;;;;;7398318;19;20536;-62
2022/06/08 01:27:22;;;;;;;6.25;4.90;;;11.00;99.90;;;;;;7393046;19;20337;-63
2022/06/08 01:30:03;;;;;;;8.98;4.97;;;11.10;99.90;;;;;;7395548;19;20017;-62
2022/06/08 01:32:38;;;;;;;9.10;5.10;;;10.70;99.90;;;;;;7395039;19;20018;-62
2022/06/08 01:35:17;;;;;;;7.13;5.00;;;11.00;99.90;;;;;;7397842;19;20015;-63
2022/06/08 01:38:01;;;;;;;9.82;4.93;;;11.10;99.90;;;;;;7395744;19;20010;-62
2022/06/08 01:41:01;;;;;;;7.30;4.95;;;10.80;99.90;;;;;;7394493;19;20054;-63
2022/06/08 01:43:42;;;;;;;8.60;5.18;;;11.10;99.90;;;;;;7396860;19;20507;-63
2022/06/08 01:46:22;;;;;;;8.27;5.18;;;10.80;99.90;;;;;;7393196;19;20018;-62
2022/06/08 01:49:12;;;;;;;7.00;5.55;;;10.80;99.90;;;;;;7398581;19;20019;-63
2022/06/08 01:52:17;;;;;;;7.32;5.10;;;10.70;99.90;;;;;;7391652;19;20022;-64
2022/06/08 01:55:01;;;;;;;8.70;5.00;;;11.10;99.90;;;;;;7394282;19;20025;-62
2022/06/08 01:57:47;;;;;;;7.95;4.72;;;10.70;99.90;;;;;;7394922;19;20015;-62
2022/06/08 02:00:20;;;;;;;9.18;5.15;;;10.70;99.90;;;;;;7396960;19;20090;-62
2022/06/08 02:02:56;;;;;;;8.05;5.43;;;11.00;99.90;;;;;;7396257;19;20018;-62
2022/06/08 02:05:33;;;;;;;12.45;5.60;;;10.60;99.90;;;;;;7396912;19;20014;-62
2022/06/08 02:08:10;;;;;;;8.57;5.35;;;10.50;99.90;;;;;;7393631;19;20501;-63
2022/06/08 02:10:47;;;;;;;8.63;4.93;;;10.60;99.90;;;;;;7392170;19;20010;-62
2022/06/08 02:13:28;;;;;;;7.80;5.00;;;10.70;99.90;;;;;;7394609;19;20042;-63
2022/06/08 02:16:02;;;;;;;8.10;5.30;;;10.60;99.90;;;;;;7393517;19;20025;-63
2022/06/08 02:18:36;;;;;;;7.95;5.53;;;10.60;99.90;;;;;;7389953;19;20471;-63
2022/06/08 02:21:12;;;;;;;6.07;4.78;;;10.70;99.90;;;;;;7396487;19;20018;-62
2022/06/08 02:23:48;;;;;;;7.68;5.40;;;10.30;99.90;;;;;;7395431;19;20041;-63
2022/06/08 02:26:24;;;;;;;8.65;5.70;;;10.50;99.90;;;;;;7390672;19;20019;-63
2022/06/08 02:29:03;;;;;;;11.45;5.60;;;10.50;99.90;;;;;;7395434;19;20018;-62
2022/06/08 02:31:36;;;;;;;9.05;5.85;;;10.60;99.90;;;;;;7392814;19;20049;-62
2022/06/08 02:36:55;;;;;;;11.80;6.30;;;10.50;99.90;;;;;;7394007;19;20014;-63
2022/06/08 02:39:28;;;;;;;8.35;5.22;;;10.50;99.90;;;;;;7396041;19;20021;-62
2022/06/08 02:42:07;;;;;;;8.02;5.28;;;10.40;99.90;;;;;;7393768;19;20042;-62
2022/06/08 02:44:38;;;;;;;9.85;6.13;;;10.60;99.90;;;;;;7396777;19;20078;-62
2022/06/08 02:47:16;;;;;;;12.13;5.60;;;10.50;99.90;;;;;;7396639;19;20019;-62
2022/06/08 02:49:45;;;;;;;10.18;5.50;;;10.60;99.90;;;;;;7396290;19;20081;-63
2022/06/08 02:52:20;;;;;;;8.80;5.85;;;10.10;99.90;;;;;;7395489;19;20014;-62
2022/06/08 02:54:49;;;;;;;8.53;5.27;;;10.40;99.90;;;;;;7395492;19;20042;-62
2022/06/08 02:57:30;;;;;;;8.52;5.60;;;10.40;99.90;;;;;;7397386;19;20038;-63
2022/06/08 03:00:02;;;;;;;9.55;5.55;;;10.40;99.90;;;;;;7396357;19;20106;-62
2022/06/08 03:02:36;;;;;;;7.65;5.38;;;10.50;99.90;;;;;;7395672;19;20022;-62
2022/06/08 03:05:10;;;;;;;7.65;5.47;;;10.30;99.90;;;;;;7396563;19;20038;-62
2022/06/08 03:07:45;;;;;;;10.43;5.80;;;10.40;99.90;;;;;;7396036;19;20046;-62
2022/06/08 03:10:17;;;;;;;10.35;6.35;;;10.30;99.90;;;;;;7394880;19;20018;-62
2022/06/08 03:12:52;;;;;;;9.80;5.90;;;10.30;99.90;;;;;;7395353;19;20038;-62
2022/06/08 03:15:26;;;;;;;8.77;5.50;;;10.40;99.90;;;;;;7391274;19;20018;-62
2022/06/08 03:17:55;;;;;;;9.70;5.60;;;;;;;;;;7392435;19;20025;-62
2022/06/08 03:20:26;;;;;;;14.30;6.25;;;10.60;99.90;;;;;;7396524;19;20021;-62
2022/06/08 03:22:56;;;;;;;9.88;5.50;;;10.30;99.90;;;;;;7392615;19;20011;-62
2022/06/08 03:25:26;;;;;;;9.23;6.32;;;10.30;99.90;;;;;;7392339;19;20018;-62
2022/06/08 03:27:58;;;;;;;9.45;5.90;;;10.30;99.90;;;;;;7393327;19;20380;-63
2022/06/08 03:30:27;;;;;;;10.77;6.45;;;10.60;99.90;;;;;;7393564;19;20443;-62
2022/06/08 03:32:56;;;;;;;11.52;6.07;;;10.30;99.90;;;;;;7396141;19;20025;-62
2022/06/08 03:35:26;;;;;;;10.80;6.10;;;10.60;99.90;;;;;;7392585;19;20014;-62
2022/06/08 03:37:55;;;;;;;10.48;6.05;;;10.30;99.90;;;;;;7392823;19;20015;-62
2022/06/08 03:40:27;;;;;;;10.77;6.82;;;10.50;99.90;;;;;;7391773;19;20027;-62
2022/06/08 03:42:58;;;;;;;13.93;7.63;;;10.30;99.90;;;;;;7401401;19;20010;-62
2022/06/08 03:45:31;;;;;;;11.73;7.63;;;10.00;99.90;;;;;;7398901;19;20014;-62
2022/06/08 03:48:00;;;;;;;13.27;7.25;;;10.40;99.90;;;;;;7401488;19;20671;-62
2022/06/08 03:50:32;;;;;;;11.45;7.18;;;10.40;99.90;;;;;;7401149;19;20022;-62
2022/06/08 03:53:06;;;;;;;12.48;7.38;;;10.50;99.90;;;;;;7400119;19;20011;-62
2022/06/08 03:55:38;;;;;;;12.45;8.18;;;10.50;99.90;;;;;;7397488;19;20015;-62
2022/06/08 03:58:10;;;;;;;13.18;7.43;;;10.60;99.90;;;;;;7398402;19;20011;-62
2022/06/08 04:00:41;;;;;;;11.80;7.43;;;10.60;99.90;;;;;;7399822;19;20021;-62
2022/06/08 04:03:11;;;;;;;10.73;7.60;;;10.50;99.90;;;;;;7402613;19;20018;-63
2022/06/08 04:05:41;;;;;;;14.23;8.18;;;10.60;99.90;;;;;;7399437;19;20499;-63
2022/06/08 04:08:10;;;;;;;10.02;7.80;;;10.60;99.90;;;;;;7397245;19;20010;-62
2022/06/08 04:10:39;;;;;;;11.98;7.07;;;;;;;;;;7402411;19;20022;-62
2022/06/08 04:13:11;;;;;;;11.50;7.43;;;10.60;99.90;;;;;;7401882;19;20022;-62
2022/06/08 04:15:46;;;;;;;12.50;7.68;;;10.60;99.90;;;;;;7398772;19;20090;-62
2022/06/08 04:18:20;;;;;;;15.32;8.45;;;10.60;99.90;;;;;;7398350;19;20026;-62
2022/06/08 04:20:56;;;;;;;15.82;7.80;;;10.80;99.90;;;;;;7400348;19;20018;-62
2022/06/08 04:23:30;;;;;;;15.27;8.65;;;10.70;99.90;;;;;;7398173;19;20031;-62
2022/06/08 04:26:00;;;;;;;14.95;8.30;;;11.00;99.90;;;;;;7398338;19;20010;-62
2022/06/08 04:28:32;;;;;;;13.85;7.82;;;10.80;99.90;;;;;;7399505;19;20025;-63
2022/06/08 04:31:01;;;;;;;17.30;8.85;;;;;;;;;;7397911;19;20006;-62
2022/06/08 04:33:30;;;;;;;13.30;9.00;;;10.80;99.90;;;;;;7401225;19;20018;-62
2022/06/08 04:36:00;;;;;;;16.20;8.48;;;10.90;99.90;;;;;;7399049;19;20006;-62
2022/06/08 04:38:29;;;;;;;13.38;8.70;;;10.90;99.90;;;;;;7398812;19;20456;-62
2022/06/08 04:40:58;;;;;;;13.98;8.35;;;;;;;;;;7397634;19;20017;-62
2022/06/08 04:43:27;;;;;;;15.32;9.35;;;11.00;99.90;;;;;;7398039;19;20019;-62
2022/06/08 04:45:59;;;;;;;15.32;8.95;;;10.90;99.90;;;;;;7400558;19;20388;-62
2022/06/08 04:48:28;;;;;;;16.50;9.45;;;10.90;99.90;;;;;;7398345;19;20019;-63
2022/06/08 04:50:57;;;;;;;14.45;9.00;;;10.90;99.90;;;;;;7397188;19;20014;-62
2022/06/08 04:53:26;;;;;;;13.70;8.70;;;11.30;99.90;;;;;;7396159;19;20190;-62
2022/06/08 04:55:55;;;;;;;14.02;8.98;;;10.80;99.90;;;;;;7400402;19;20017;-63
2022/06/08 04:58:26;;;;;;;17.40;9.30;;;11.20;99.90;;;;;;7397231;19;20042;-62
2022/06/08 05:00:56;;;;;;;15.00;9.48;;;;;;;;;;7397208;19;20017;-63
2022/06/08 05:03:27;;;;;;;20.20;9.65;;;11.00;99.90;;;;;;7397277;19;20038;-62
2022/06/08 05:05:56;;;;;;;15.95;9.88;;;11.00;99.90;;;;;;7397397;19;20043;-62
2022/06/08 05:08:26;;;;;;;16.98;9.40;;;11.30;99.90;;;;;;7396793;19;20549;-63
2022/06/08 05:10:56;;;;;;;16.73;10.00;;;11.50;99.90;;;;;;7397301;19;20034;-62
2022/06/08 05:13:25;;;;;;;16.83;10.20;;;11.20;99.90;;;;;;7399477;19;20023;-62
2022/06/08 05:15:54;;;;;;;19.20;10.38;;;11.40;99.90;;;;;;7394490;19;20018;-62
2022/06/08 05:18:24;;;;;;;20.35;12.02;;;11.40;99.90;;;;;;7397210;19;20088;-62
2022/06/08 05:20:57;;;;;;;21.88;11.30;;;11.60;99.90;;;;;;7397032;19;20015;-61
2022/06/08 05:23:28;;;;;;;18.58;11.60;;;11.60;99.90;;;;;;7396343;19;20046;-61
2022/06/08 05:25:58;;;;;;;20.77;11.75;;;11.70;99.90;;;;;;7396994;19;20478;-62
2022/06/08 05:28:27;;;;;;;19.88;12.27;;;11.80;99.90;;;;;;7397657;19;20023;-62
2022/06/08 05:30:56;;;;;;;21.83;12.57;;;11.80;99.90;;;;;;7396109;19;20015;-62
2022/06/08 05:33:26;;;;;;;19.55;11.68;;;11.80;99.90;;;;;;7396078;19;20070;-62
2022/06/08 05:35:59;;;;;;;24.17;13.35;;;11.90;99.90;;;;;;7391867;19;20035;-62
2022/06/08 05:38:28;;;;;;;23.52;12.57;;;11.90;99.90;;;;;;7399603;19;20018;-62
2022/06/08 05:40:58;;;;;;;19.77;12.55;;;12.10;99.90;;;;;;7395953;19;20021;-62
2022/06/08 05:43:27;;;;;;;21.48;12.82;;;12.00;99.90;;;;;;7397022;19;20478;-61
2022/06/08 05:45:56;;;;;;;23.20;12.95;;;12.10;99.90;;;;;;7396810;19;20384;-62
2022/06/08 05:48:25;;;;;;;22.38;12.77;;;12.10;99.90;;;;;;7398275;19;20007;-61
2022/06/08 05:50:53;;;;;;;24.10;12.55;;;12.10;99.90;;;;;;7386827;19;20018;-63
2022/06/08 05:53:25;;;;;;;22.48;12.38;;;12.10;99.90;;;;;;7395611;19;20018;-62
2022/06/08 05:55:54;;;;;;;20.40;13.30;;;;;;;;;;7391578;19;20156;-61
2022/06/08 05:58:23;;;;;;;22.83;13.02;;;;;;;;;;7392649;19;20024;-61
2022/06/08 06:00:52;;;;;;;22.70;12.23;;;12.20;99.90;;;;;;7397031;19;20098;-62
2022/06/08 06:03:22;;;;;;;23.45;12.98;;;12.20;99.90;;;;;;7393188;19;20021;-62
2022/06/08 06:05:52;;;;;;;24.60;13.10;;;12.30;99.90;;;;;;7391718;19;20014;-62
2022/06/08 06:08:21;;;;;;;23.63;12.82;;;12.30;99.90;;;;;;7396001;19;20042;-62
2022/06/08 06:10:53;;;;;;;21.27;12.57;;;12.30;99.90;;;;;;7397489;19;20015;-62
2022/06/08 06:13:22;;;;;;;22.67;13.10;;;12.40;99.90;;;;;;7395308;19;20313;-62
2022/06/08 06:15:51;;;;;;;24.08;13.43;;;12.60;99.90;;;;;;7393912;19;20042;-62
2022/06/08 06:18:20;;;;;;;24.58;13.10;;;12.40;99.90;;;;;;7394344;19;20027;-62
2022/06/08 06:20:49;;;;;;;23.42;14.15;;;12.50;99.90;;;;;;7386938;19;20074;-63
2022/06/08 06:23:18;;;;;;;25.75;14.40;;;12.50;99.90;;;;;;7397619;19;20024;-64
2022/06/08 06:25:48;;;;;;;22.83;14.00;;;12.60;99.90;;;;;;7392238;19;20018;-64
2022/06/08 06:28:19;;;;;;;28.60;15.68;;;12.70;99.90;;;;;;7393816;19;20332;-61
2022/06/08 06:30:49;;;;;;;28.58;14.80;;;12.80;99.90;;;;;;7395848;19;20036;-61
2022/06/08 06:33:18;;;;;;;25.23;14.38;;;12.80;99.90;;;;;;7392998;19;20015;-61
2022/06/08 06:35:47;;;;;;;25.45;15.63;;;12.80;99.90;;;;;;7394833;19;20017;-62
2022/06/08 06:38:16;;;;;;;24.92;14.77;;;13.00;99.90;;;;;;7398058;19;20088;-61
2022/06/08 06:40:46;;;;;;;27.45;16.00;;;13.00;99.90;;;;;;7393575;19;20019;-61
2022/06/08 06:43:15;;;;;;;28.75;15.88;;;13.00;99.90;;;;;;7392310;19;20014;-61
2022/06/08 06:45:46;;;;;;;26.95;15.13;;;13.10;99.90;;;;;;7393041;19;20506;-61
2022/06/08 06:48:15;;;;;;;31.45;15.85;;;13.10;99.90;;;;;;7393672;19;20025;-62
2022/06/08 06:50:44;;;;;;;26.92;16.48;;;13.10;99.90;;;;;;7393617;19;20029;-61
2022/06/08 06:53:15;;;;;;;27.05;15.45;;;13.20;99.90;;;;;;7394125;19;20031;-62
2022/06/08 06:55:43;;;;;;;27.83;15.98;;;13.20;99.90;;;;;;7392153;19;20014;-62
2022/06/08 06:58:12;;;;;;;23.92;15.32;;;13.20;99.90;;;;;;7392833;19;20027;-62
2022/06/08 07:00:41;;;;;;;25.40;14.95;;;13.20;99.90;;;;;;7390531;19;20026;-61
2022/06/08 07:03:22;;;;;;;27.25;15.40;;;13.30;99.90;;;;;;7397564;19;20010;-62
2022/06/08 07:05:52;;;;;;;23.45;14.15;;;13.30;99.90;;;;;;7393953;19;20014;-62
2022/06/08 07:08:20;;;;;;;24.40;14.88;;;13.40;99.90;;;;;;7392950;19;20028;-62
2022/06/08 07:11:32;;;;;;;26.27;14.52;;;13.40;99.90;;;;;;7393996;19;20018;-62
2022/06/08 07:13:41;;;;;;;27.88;14.27;;;13.50;99.90;;;;;;7393790;19;20479;-62
2022/06/08 07:16:10;;;;;;;25.73;14.38;;;14.40;99.90;;;;;;7393902;19;20039;-62
2022/06/08 07:18:41;;;;;;;24.15;13.68;;;13.50;99.90;;;;;;7395388;19;20375;-62
2022/06/08 07:21:11;;;;;;;25.48;13.25;;;13.60;99.90;;;;;;7394276;19;20048;-62
2022/06/08 07:23:40;;;;;;;21.25;12.05;;;13.80;99.90;;;;;;7392257;19;20385;-62
2022/06/08 07:26:09;;;;;;;19.67;11.57;;;13.70;99.90;;;;;;7392398;19;20021;-62
2022/06/08 07:28:38;;;;;;;20.58;11.05;;;13.70;99.90;;;;;;7396459;19;20565;-61
2022/06/08 07:31:08;;;;;;;19.20;11.45;;;14.00;99.90;;;;;;7393360;19;20344;-62
2022/06/08 07:33:37;;;;;;;26.35;12.68;;;14.10;99.90;;;;;;7392300;19;20027;-62
2022/06/08 07:36:10;;;;;;;17.70;10.95;;;13.60;99.90;;;;;;7390709;19;20010;-62
2022/06/08 07:38:40;;;;;;;17.05;10.50;;;14.20;99.90;;;;;;7390093;19;20026;-62
2022/06/08 07:41:10;;;;;;;17.13;10.27;;;14.10;99.90;;;;;;7395117;19;20021;-62
2022/06/08 07:43:39;;;;;;;19.65;11.00;;;14.00;99.90;;;;;;7393157;19;20070;-62
2022/06/08 07:46:08;;;;;;;17.13;10.88;;;14.30;99.90;;;;;;7395911;19;20470;-62
2022/06/08 07:51:27;;;;;;;19.55;11.15;;;14.30;99.90;;;;;;7390121;19;20159;-62
2022/06/08 07:53:56;;;;;;;16.23;9.90;;;14.50;99.90;;;;;;7392049;19;20077;-62
2022/06/08 07:56:25;;;;;;;16.83;10.18;;;14.50;99.90;;;;;;7394104;19;20018;-62
2022/06/08 07:58:54;;;;;;;19.63;10.48;;;14.60;99.90;;;;;;7391139;19;20471;-62
2022/06/08 08:01:23;;;;;;;14.98;9.75;;;14.80;99.90;;;;;;7392177;19;20357;-62
2022/06/08 08:03:51;;;;;;;16.33;9.93;;;14.80;99.90;;;;;;7391660;19;20349;-62
2022/06/08 08:06:20;;;;;;;17.83;9.20;;;14.80;99.90;;;;;;7391584;19;20031;-62
2022/06/08 08:08:52;;;;;;;16.33;8.73;;;14.80;99.90;;;;;;7394228;19;20361;-62
2022/06/08 08:11:22;;;;;;;12.75;7.63;;;14.80;99.90;;;;;;7391607;19;20039;-62
2022/06/08 08:13:51;;;;;;;12.70;8.07;;;15.10;99.90;;;;;;7391486;19;20357;-62
2022/06/08 08:16:20;;;;;;;15.00;8.93;;;15.40;99.90;;;;;;7389434;19;20027;-62
2022/06/08 08:18:49;;;;;;;15.57;8.65;;;15.00;99.90;;;;;;7393489;19;20014;-62
2022/06/08 08:21:18;;;;;;;17.48;9.75;;;15.00;99.90;;;;;;7390246;19;20028;-62
2022/06/08 08:23:47;;;;;;;17.10;9.95;;;15.00;99.90;;;;;;7390621;19;20822;-62
2022/06/08 08:26:19;;;;;;;17.63;9.88;;;15.10;99.90;;;;;;7393855;19;20094;-62
2022/06/08 08:28:47;;;;;;;17.05;9.23;;;15.20;99.90;;;;;;7394280;19;20346;-61
2022/06/08 08:31:16;;;;;;;15.13;9.93;;;15.30;99.90;;;;;;7400497;19;20029;-62
2022/06/08 08:33:45;;;;;;;17.55;10.10;;;15.40;99.90;;;;;;7397158;19;20021;-62
2022/06/08 08:36:14;;;;;;;15.63;9.90;;;15.40;99.90;;;;;;7399681;19;20024;-62
2022/06/08 08:38:43;;;;;;;14.82;9.68;;;15.40;99.90;;;;;;7396965;19;20014;-62
2022/06/08 08:44:04;;;;;;;14.60;9.20;;;15.50;99.90;;;;;;7395736;19;20007;-62
2022/06/08 08:46:44;;;;;;;14.05;9.52;;;15.80;99.90;;;;;;7397992;19;20315;-62
2022/06/08 08:49:23;;;;;;;14.80;9.18;;;16.10;99.90;;;;;;7399135;19;20082;-62
2022/06/08 08:51:59;;;;;;;15.32;9.48;;;16.00;99.90;;;;;;7398094;19;20046;-63
2022/06/08 08:54:34;;;;;;;17.67;9.23;;;16.20;99.90;;;;;;7401618;19;20066;-62
2022/06/08 08:57:21;;;;;;;12.93;8.55;;;16.30;99.90;;;;;;7394431;19;20375;-62
2022/06/08 08:59:51;;;;;;;14.88;8.82;;;16.40;99.90;;;;;;7397555;19;20487;-62
2022/06/08 09:05:12;;;;;;;9.83;6.30;;;16.50;99.90;;;;;;7394732;19;20011;-61
2022/06/08 09:07:44;;;;;;;9.73;6.13;;;16.60;99.90;;;;;;7396900;19;20542;-62
2022/06/08 09:10:19;;;;;;;7.28;5.18;;;16.40;99.90;;;;;;7399916;19;20038;-62
2022/06/08 09:12:52;;;;;;;6.70;3.53;;;16.50;99.90;;;;;;7397992;19;20014;-62
2022/06/08 09:15:45;;;;;;;6.65;2.90;;;16.40;99.90;;;;;;7393939;19;20078;-62
2022/06/08 09:18:22;;;;;;;4.57;2.95;;;16.60;99.90;;;;;;7396522;19;20082;-63
2022/06/08 09:20:51;;;;;;;5.22;2.78;;;16.40;99.90;;;;;;7400170;19;20010;-62
2022/06/08 09:23:31;;;;;;;4.50;3.17;;;16.50;99.90;;;;;;7396575;19;20026;-62
2022/06/08 09:26:07;;;;;;;5.40;3.08;;;16.70;99.90;;;;;;7396605;19;20014;-62
2022/06/08 09:28:41;;;;;;;6.30;3.60;;;16.80;99.90;;;;;;7395240;19;20033;-62
2022/06/08 09:31:26;;;;;;;5.38;3.40;;;16.80;99.90;;;;;;7395678;19;20011;-62
2022/06/08 09:34:08;;;;;;;5.25;3.00;;;16.80;99.90;;;;;;7397351;19;20077;-62
2022/06/08 09:36:37;;;;;;;4.72;2.63;;;17.10;99.90;;;;;;7393862;19;20078;-62
2022/06/08 09:39:06;;;;;;;5.50;2.70;;;17.10;99.90;;;;;;7394870;19;20011;-61
2022/06/08 09:41:41;;;;;;;5.35;2.90;;;17.10;99.90;;;;;;7395173;19;20014;-62
2022/06/08 09:44:27;;;;;;;4.25;3.05;;;17.10;99.90;;;;;;7397719;19;20007;-63
2022/06/08 09:52:45;;;;;;;;;;;17.40;99.90;;;;;;7396568;19;20030;-62
2022/06/08 09:55:25;;;;;;;3.58;2.55;;;17.30;99.90;;;;;;7395177;19;19910;-63
2022/06/08 09:58:08;;;;;;;3.65;2.30;;;17.50;99.90;;;;;;7394718;19;20045;-61
2022/06/08 10:00:48;;;;;;;4.57;2.85;;;17.40;99.90;;;;;;7396350;19;20018;-62
2022/06/08 10:03:34;;;;;;;4.38;2.60;;;17.40;99.90;;;;;;7399235;19;20038;-62
2022/06/08 10:06:14;;;;;;;5.83;2.80;;;17.30;99.90;;;;;;7393705;19;20014;-63
2022/06/08 10:08:56;;;;;;;4.82;2.90;;;17.40;99.90;;;;;;7390406;19;20034;-63
2022/06/08 10:11:39;;;;;;;3.85;3.00;;;17.50;99.90;;;;;;7386452;19;20095;-63
2022/06/08 10:14:25;;;;;;;5.22;3.20;;;17.30;99.90;;;;;;7382216;19;20119;-62
2022/06/08 10:17:02;;;;;;;5.10;3.25;;;17.40;99.90;;;;;;7381812;19;20018;-63
2022/06/08 10:19:37;;;;;;;4.88;3.60;;;17.30;99.90;;;;;;7385448;19;20092;-64
2022/06/08 10:22:07;;;;;;;5.85;3.72;;;17.30;99.90;;;;;;7391530;19;20026;-65
2022/06/08 10:24:47;;;;;;;5.22;3.80;;;17.40;99.90;;;;;;7392455;19;20017;-64
2022/06/08 10:27:23;;;;;;;5.80;3.83;;;17.30;99.90;;;;;;7390941;19;20014;-64
2022/06/08 10:29:54;;;;;;;;;;;17.30;99.90;;;;;;7396976;19;20015;-64
2022/06/08 10:32:31;;;;;;;6.88;4.10;;;17.30;99.90;;;;;;7397162;19;19922;-64
2022/06/08 10:35:02;;;;;;;6.07;4.20;;;17.60;99.90;;;;;;7397620;19;20365;-62
2022/06/08 10:37:37;;;;;;;8.02;4.07;;;17.70;99.90;;;;;;7391427;19;20028;-62
2022/06/08 10:40:09;;;;;;;6.50;3.90;;;17.90;99.90;;;;;;7395872;19;20025;-62
2022/06/08 10:42:39;;;;;;;7.47;3.90;;;18.10;99.90;;;;;;7393454;19;20081;-62
2022/06/08 10:45:49;;;;;;;6.10;3.70;;;18.50;99.90;;;;;;7396377;19;20552;-62
2022/06/08 10:48:50;;;;;;;5.15;3.10;;;18.50;99.90;;;;;;7387661;19;20049;-62
2022/06/08 10:51:43;;;;;;;7.05;3.20;;;18.30;99.90;;;;;;7390351;19;20010;-62
2022/06/08 10:57:39;;;;;;;6.15;3.33;;;18.20;99.90;;;;;;7392528;19;20074;-62
2022/06/08 11:00:27;;;;;;;6.72;3.67;;;18.20;99.90;;;;;;7390582;19;20026;-62
2022/06/08 11:03:02;;;;;;;7.45;3.60;;;18.20;99.90;;;;;;7391798;19;20524;-62
2022/06/08 11:05:37;;;;;;;6.85;3.65;;;18.20;99.90;;;;;;7390953;19;20025;-62
2022/06/08 11:08:22;;;;;;;5.10;3.70;;;18.10;99.90;;;;;;7386613;19;20339;-62
2022/06/08 11:11:01;;;;;;;5.88;3.67;;;18.10;99.90;;;;;;7396065;19;20014;-62
2022/06/08 11:13:38;;;;;;;7.65;3.75;;;18.10;99.90;;;;;;7392007;19;20026;-62
2022/06/08 11:16:15;;;;;;;4.85;3.33;;;18.30;99.90;;;;;;7386807;19;20482;-62
2022/06/08 11:18:48;;;;;;;4.68;3.30;;;18.40;99.90;;;;;;7380412;19;20022;-65
2022/06/08 11:21:38;;;;;;;6.78;3.30;;;18.70;99.90;;;;;;7394909;19;20010;-62
2022/06/08 11:24:20;;;;;;;6.68;3.45;;;19.00;99.90;;;;;;7395696;19;20019;-62
2022/06/08 11:26:53;;;;;;;5.45;3.30;;;19.00;99.90;;;;;;7392590;19;20721;-62
2022/06/08 11:29:48;;;;;;;6.63;3.50;;;19.20;99.90;;;;;;7390126;19;20097;-61
2022/06/08 11:32:41;;;;;;;5.38;3.30;;;19.20;99.90;;;;;;7391648;19;20015;-61
2022/06/08 11:35:43;;;;;;;4.90;2.90;;;19.20;99.90;;;;;;7384288;19;20090;-62
2022/06/08 11:38:28;;;;;;;4.72;3.78;;;19.10;99.90;;;;;;7384075;19;20356;-62
2022/06/08 11:41:16;;;;;;;5.82;3.20;;;19.00;99.90;;;;;;7380010;19;20030;-63
2022/06/08 11:43:47;;;;;;;6.20;2.70;;;19.10;99.90;;;;;;7395298;19;20010;-62
2022/06/08 11:46:25;;;;;;;6.95;2.40;;;19.30;99.90;;;;;;7394175;19;20032;-63
2022/06/08 11:48:54;;;;;;;3.35;1.90;;;19.40;99.90;;;;;;7391669;19;20506;-63
2022/06/08 11:51:36;;;;;;;5.53;2.17;;;19.20;99.90;;;;;;7393773;19;20493;-62
2022/06/08 11:54:25;;;;;;;3.95;2.00;;;19.40;99.90;;;;;;7390648;19;20495;-62
2022/06/08 11:57:07;;;;;;;5.05;2.25;;;19.30;99.90;;;;;;7381251;19;20018;-64
2022/06/08 11:59:39;;;;;;;3.25;2.17;;;19.40;99.90;;;;;;7389576;19;20027;-62
2022/06/08 12:02:21;;;;;;;4.95;2.50;;;20.10;99.90;;;;;;7394864;19;20021;-62
2022/06/08 12:04:54;;;;;;;4.05;2.33;;;19.40;99.90;;;;;;7398991;19;20017;-63
2022/06/08 12:07:45;;;;;;;4.72;2.30;;;19.70;99.90;;;;;;7397341;19;20043;-62
2022/06/08 12:10:22;;;;;;;3.78;2.38;;;19.80;99.90;;;;;;7395984;19;20023;-62
2022/06/08 12:12:53;;;;;;;5.47;2.60;;;19.60;99.90;;;;;;7398032;19;20015;-62
2022/06/08 12:15:44;;;;;;;3.85;2.33;;;19.90;99.90;;;;;;7397466;19;20018;-63
2022/06/08 12:18:25;;;;;;;4.22;2.42;;;20.10;99.90;;;;;;7395243;19;20383;-63
2022/06/08 12:21:06;;;;;;;5.13;3.03;;;20.10;99.90;;;;;;7402318;19;20166;-63
2022/06/08 12:23:44;;;;;;;3.80;2.55;;;20.10;99.90;;;;;;7397926;19;20391;-63
2022/06/08 12:26:26;;;;;;;4.78;2.70;;;20.10;99.90;;;;;;7397254;19;20025;-63
2022/06/08 12:29:04;;;;;;;8.38;3.05;;;20.50;99.90;;;;;;7396873;19;20491;-63
2022/06/08 12:31:34;;;;;;;3.42;2.50;;;20.50;99.90;;;;;;7395431;19;20487;-63
2022/06/08 12:34:27;;;;;;;4.68;3.25;;;20.70;99.90;;;;;;7395806;19;20511;-63
2022/06/08 12:36:57;;;;;;;4.57;2.70;;;20.70;99.90;;;;;;7398500;19;20019;-63
2022/06/08 12:39:30;;;;;;;4.20;3.10;;;20.80;99.90;;;;;;7360505;19;20023;-64
2022/06/08 12:42:02;;;;;;;5.32;2.55;;;20.80;99.90;;;;;;7384849;19;20006;-63
2022/06/08 12:44:34;;;;;;;4.72;2.70;;;20.90;99.90;;;;;;7398004;19;20011;-63
2022/06/08 12:47:13;;;;;;;5.00;2.92;;;20.90;99.90;;;;;;7397599;19;20021;-63
2022/06/08 12:49:46;;;;;;;4.43;2.42;;;20.90;99.90;;;;;;7400298;19;20527;-63
2022/06/08 12:52:23;;;;;;;3.50;2.80;;;20.70;99.90;;;;;;7397337;19;20025;-63
2022/06/08 12:54:53;;;;;;;5.72;2.80;;;20.70;99.90;;;;;;7397676;19;20013;-63
2022/06/08 12:57:28;;;;;;;3.92;3.08;;;20.60;99.90;;;;;;7395453;19;20022;-63
2022/06/08 12:59:59;;;;;;;3.35;2.45;;;20.40;99.90;;;;;;7400001;19;20018;-63
2022/06/08 13:02:32;;;;;;;5.57;2.90;;;20.20;99.90;;;;;;7400146;19;20011;-63
2022/06/08 13:05:02;;;;;;;3.80;2.80;;;20.10;99.90;;;;;;7398454;19;20644;-63
2022/06/08 13:07:33;;;;;;;4.35;3.10;;;19.90;99.90;;;;;;7398259;19;20502;-65
2022/06/08 13:10:02;;;;;;;6.25;1.67;;;19.80;99.90;;;;;;7397635;19;20014;-63
2022/06/08 13:12:39;;;;;;;8.10;2.30;;;19.10;99.90;;;;;;7397334;19;20014;-63
2022/06/08 13:15:18;;;;;;;9.27;2.38;;;18.30;99.90;;;;;;7394731;19;20089;-62
2022/06/08 13:17:48;;;;;;;6.07;2.10;;;17.90;99.90;;;;;;7396123;19;20352;-63
2022/06/08 13:20:20;;;;;;;6.75;2.28;;;17.60;99.90;;;;;;7398218;19;20010;-62
2022/06/08 13:22:49;;;;;;;6.53;2.28;;;17.10;99.90;;;;;;7395662;19;20070;-62
2022/06/08 13:25:20;;;;;;;8.73;2.35;;;16.50;99.90;;;;;;7395592;19;20098;-62
2022/06/08 13:27:52;;;;;;;6.47;2.20;;;16.60;99.90;;;;;;7394977;19;20007;-63
2022/06/08 13:30:25;;;;;;;7.00;2.20;;;16.30;99.90;;;;;;7395051;19;20522;-63
2022/06/08 13:32:55;;;;;;;6.45;2.42;;;16.00;99.90;;;;;;7396663;19;20042;-63
2022/06/08 13:35:25;;;;;;;6.75;2.38;;;15.90;99.90;;;;;;7397758;19;20023;-63
2022/06/08 13:37:55;;;;;;;6.55;2.20;;;15.90;99.90;;;;;;7393895;19;20006;-64